MSC Kingston — VRPE9 — position and weather

sailwx.info

Track history (hours):
 
Tides and Currents Weather Stations Pressure Air Temp Water Temp Dewpoint Dewpoint Depression Visibility Wind Speed Wind Dir Waves Ship Positions

MSC Kingston

Last reported at 2017-Nov-20 00:29 UTC. Time now 2017-Nov-20 11:58 UTC.
Position N 44°06' E 009°51'.

Length 304 m; draft 10.9 m.

Type: Ship (hazmat cat D). MMSI: 477348500.

Date/timePositionNaut miles runAvg speedWind from/ knotsBaromVisibWave heightAir tempDewpointWater temp
2017-Nov-20 00:29N 44°06' E 009°51'0 0.0
2017-Nov-19 23:56N 44°06' E 009°51'0 0.0
2017-Nov-19 23:29N 44°06' E 009°51'0 0.0
2017-Nov-19 22:59N 44°06' E 009°51'0 0.0
2017-Nov-19 22:29N 44°06' E 009°51'0 0.0
2017-Nov-19 21:56N 44°06' E 009°51'0 0.0
2017-Nov-19 21:29N 44°06' E 009°51'0 0.0
2017-Nov-19 20:59N 44°06' E 009°51'0 0.0
2017-Nov-19 20:29N 44°06' E 009°51'0 0.0
2017-Nov-19 19:59N 44°06' E 009°51'0 0.7
2017-Nov-19 19:30N 44°06' E 009°51'4 7.1
2017-Nov-19 19:01N 44°03' E 009°53'1 2.5
2017-Nov-19 18:31N 44°02' E 009°54'1 1.7
2017-Nov-19 18:00N 44°02' E 009°55'0 0.1
2017-Nov-19 17:30N 44°02' E 009°55'0 0.0
2017-Nov-19 17:00N 44°02' E 009°55'0 0.1
2017-Nov-19 16:30N 44°02' E 009°55'0 0.0
2017-Nov-19 16:00N 44°02' E 009°55'0 0.0
2017-Nov-19 15:30N 44°02' E 009°55'0 0.0
2017-Nov-19 14:57N 44°02' E 009°55'0 0.0
2017-Nov-19 14:30N 44°02' E 009°55'0 0.1
2017-Nov-19 13:57N 44°02' E 009°55'0 0.2
2017-Nov-19 13:30N 44°02' E 009°55'0 0.3
2017-Nov-19 13:00N 44°02' E 009°55'2 4.2
2017-Nov-19 12:30N 43°60' E 009°56'510.9
2017-Nov-19 12:00N 43°55' E 009°54'611.6
2017-Nov-19 11:30N 43°49' E 009°51'611.2
2017-Nov-19 11:00N 43°44' E 009°49'611.2
2017-Nov-19 10:30N 43°38' E 009°47'611.2
2017-Nov-19 10:00N 43°33' E 009°49'510.5
2017-Nov-19 09:30N 43°31' E 009°56'510.8
2017-Nov-19 09:00N 43°30' E 010°03'611.2
2017-Nov-19 08:30N 43°31' E 010°11'4 7.4
2017-Nov-19 08:00N 43°32' E 010°16'2 4.8
2017-Nov-19 07:30N 43°34' E 010°18'1 1.3
2017-Nov-19 07:00N 43°34' E 010°18'0 0.0
2017-Nov-19 06:30N 43°35' E 010°18'0 0.0
2017-Nov-19 05:51N 43°35' E 010°18'0 0.0
2017-Nov-19 05:30N 43°35' E 010°18'0 0.0
2017-Nov-19 04:57N 43°35' E 010°18'0 0.0
2017-Nov-19 04:30N 43°35' E 010°18'0 0.0
2017-Nov-19 03:57N 43°35' E 010°18'0 0.0
2017-Nov-19 03:27N 43°35' E 010°18'0 0.0
2017-Nov-19 03:00N 43°35' E 010°18'0 0.0
2017-Nov-19 02:30N 43°35' E 010°18'0 0.0
2017-Nov-19 02:00N 43°35' E 010°18'0 0.0
2017-Nov-19 01:30N 43°35' E 010°18'0 0.0
2017-Nov-19 01:00N 43°35' E 010°18'0 0.0
2017-Nov-19 00:27N 43°34' E 010°18'0 0.0
2017-Nov-18 23:57N 43°35' E 010°18'0 0.0
2017-Nov-18 23:30N 43°35' E 010°18'0 0.0
2017-Nov-18 23:00N 43°34' E 010°18'0 0.0
2017-Nov-18 22:30N 43°35' E 010°18'0 0.0
2017-Nov-18 21:57N 43°35' E 010°18'0 0.0
2017-Nov-18 21:30N 43°35' E 010°18'0 0.0
2017-Nov-18 21:00N 43°35' E 010°18'0 0.0
2017-Nov-18 20:30N 43°35' E 010°18'0 0.0
2017-Nov-18 20:00N 43°35' E 010°18'0 0.0
2017-Nov-18 19:30N 43°35' E 010°18'0 0.0
2017-Nov-18 19:00N 43°34' E 010°18'0 0.0
2017-Nov-18 18:30N 43°35' E 010°18'0 0.0
2017-Nov-18 18:00N 43°35' E 010°18'0 0.0
2017-Nov-18 17:21N 43°35' E 010°18'0 0.0
2017-Nov-18 16:57N 43°35' E 010°18'0 0.0
2017-Nov-18 16:30N 43°35' E 010°18'0 0.0
2017-Nov-18 16:00N 43°35' E 010°18'0 0.0
2017-Nov-18 15:30N 43°35' E 010°18'0 0.0
2017-Nov-18 14:57N 43°35' E 010°18'0 0.0
2017-Nov-18 14:30N 43°34' E 010°18'0 0.0
2017-Nov-18 14:00N 43°35' E 010°18'0 0.0
2017-Nov-18 13:30N 43°35' E 010°18'0 0.0
2017-Nov-18 13:00N 43°35' E 010°18'0 0.0
2017-Nov-18 12:30N 43°35' E 010°18'0 0.0
2017-Nov-18 12:00N 43°34' E 010°18'0 0.0
2017-Nov-18 11:30N 43°35' E 010°18'0 0.0
2017-Nov-18 11:00N 43°35' E 010°18'0 0.0
2017-Nov-18 10:27N 43°35' E 010°18'0 0.0
2017-Nov-18 10:00N 43°35' E 010°18'0 0.0
2017-Nov-18 09:24N 43°35' E 010°18'0 0.0
2017-Nov-18 09:00N 43°35' E 010°18'0 0.0
2017-Nov-18 08:30N 43°35' E 010°18'0 0.0
2017-Nov-18 07:57N 43°35' E 010°18'0 0.0
2017-Nov-18 07:30N 43°35' E 010°18'0 0.0
2017-Nov-18 07:00N 43°35' E 010°18'1 2.1
2017-Nov-18 06:30N 43°34' E 010°18'3 5.1
2017-Nov-18 06:00N 43°32' E 010°16'0 0.3
2017-Nov-18 05:30N 43°31' E 010°16'3 6.6
2017-Nov-18 05:00N 43°29' E 010°13'2 3.1
2017-Nov-18 04:30N 43°27' E 010°13'1 2.9
2017-Nov-18 04:00N 43°26' E 010°12'4 8.0
2017-Nov-18 03:30N 43°22' E 010°11'4 7.3
2017-Nov-18 03:00N 43°18' E 010°10'510.0
2017-Nov-18 02:30N 43°13' E 010°09'612.1
2017-Nov-18 02:00N 43°08' E 010°07'612.4
2017-Nov-18 01:30N 43°01' E 010°05'611.8
2017-Nov-18 01:00N 42°56' E 010°03'4610.7
2017-Nov-17 20:39N 42°10' E 010°15'212.2
2017-Nov-17 20:28N 42°09' E 010°18'612.2
2017-Nov-17 19:59N 42°05' E 010°24'190 7.9
2017-Nov-16 19:53N 40°50' E 014°17'0 0.0
2017-Nov-16 19:26N 40°50' E 014°17'0 0.0
2017-Nov-16 18:56N 40°50' E 014°17'0 0.0
2017-Nov-16 18:26N 40°50' E 014°17'0 0.0
2017-Nov-16 17:56N 40°50' E 014°17'0 0.0
2017-Nov-16 16:38N 40°50' E 014°17'0 0.0
2017-Nov-16 16:26N 40°50' E 014°17'0 0.0
2017-Nov-16 15:59N 40°50' E 014°17'0 0.0
2017-Nov-16 15:29N 40°50' E 014°17'0 0.0
2017-Nov-16 14:59N 40°50' E 014°17'0 0.0
2017-Nov-16 14:26N 40°50' E 014°17'0 0.0
2017-Nov-16 13:59N 40°50' E 014°17'0 0.0
2017-Nov-16 13:29N 40°50' E 014°17'0 0.0
2017-Nov-16 12:59N 40°50' E 014°17'0 0.0
2017-Nov-16 12:17N 40°50' E 014°17'0 0.0
2017-Nov-16 11:59N 40°50' E 014°17'0 0.0
2017-Nov-16 11:29N 40°50' E 014°17'0 0.0
2017-Nov-16 10:59N 40°50' E 014°17'0 0.0
2017-Nov-16 10:05N 40°50' E 014°17'0 0.0
2017-Nov-16 09:50N 40°50' E 014°17'0 0.0
2017-Nov-16 09:29N 40°50' E 014°17'0 0.0
2017-Nov-16 08:47N 40°50' E 014°17'0 0.0
2017-Nov-16 08:20N 40°50' E 014°17'0 0.0
2017-Nov-16 07:53N 40°50' E 014°17'0 0.0
2017-Nov-16 07:23N 40°50' E 014°17'0 0.0
2017-Nov-16 06:53N 40°50' E 014°17'0 0.0
2017-Nov-15 20:35N 40°50' E 014°17'0 0.1
2017-Nov-15 20:29N 40°50' E 014°17'0 0.0
2017-Nov-15 19:32N 40°50' E 014°17'0 0.0
2017-Nov-15 17:35N 40°50' E 014°17'0 0.4
2017-Nov-15 17:30N 40°50' E 014°17'1 1.2
2017-Nov-15 17:00N 40°50' E 014°17'2 4.4
2017-Nov-15 16:30N 40°48' E 014°17'612.8
2017-Nov-15 16:00N 40°42' E 014°13'1019.2
2017-Nov-15 15:30N 40°33' E 014°07'1119.2
2017-Nov-15 14:55N 40°24' E 014°14'920.2
2017-Nov-15 14:28N 40°16' E 014°21'5520.0
2017-Nov-15 11:44N 39°30' E 015°00'520.1
2017-Nov-15 11:29N 39°26' E 015°04'3320.1
2017-Nov-15 09:52N 38°58' E 015°26'820.0
2017-Nov-15 09:29N 38°52' E 015°32'919.8
2017-Nov-15 09:00N 38°44' E 015°38'1020.1
2017-Nov-15 08:30N 38°36' E 015°45'1018.8
2017-Nov-15 08:00N 38°28' E 015°52'2 3.0
2017-Nov-15 07:20N 38°27' E 015°54'0 0.0
2017-Nov-15 06:59N 38°27' E 015°54'0 0.0
2017-Nov-15 06:29N 38°27' E 015°54'0 0.0
2017-Nov-15 05:59N 38°27' E 015°54'0 0.0
2017-Nov-15 05:29N 38°27' E 015°54'0 0.0
2017-Nov-15 04:59N 38°27' E 015°54'0 0.0
2017-Nov-15 04:02N 38°27' E 015°54'0 0.0
2017-Nov-15 02:20N 38°27' E 015°54'0 0.0
2017-Nov-15 01:59N 38°27' E 015°54'0 0.0
2017-Nov-15 01:20N 38°27' E 015°54'0 0.0
2017-Nov-15 00:56N 38°27' E 015°54'0 0.0
2017-Nov-15 00:29N 38°27' E 015°54'0 0.0
2017-Nov-14 23:56N 38°27' E 015°54'0 0.0
2017-Nov-14 23:29N 38°27' E 015°54'0 0.0
2017-Nov-14 22:59N 38°27' E 015°54'0 0.0
2017-Nov-14 22:29N 38°27' E 015°54'0 0.0
2017-Nov-14 21:59N 38°27' E 015°54'0 0.0
2017-Nov-14 21:29N 38°27' E 015°54'0 0.0
2017-Nov-14 20:56N 38°27' E 015°54'0 0.0
2017-Nov-14 20:29N 38°27' E 015°54'0 0.0
2017-Nov-14 19:56N 38°27' E 015°54'0 0.0
2017-Nov-14 19:26N 38°27' E 015°54'0 0.0
2017-Nov-14 18:59N 38°27' E 015°54'0 0.0
2017-Nov-14 18:29N 38°27' E 015°54'0 0.0
2017-Nov-14 17:59N 38°27' E 015°54'0 0.0
2017-Nov-14 17:26N 38°27' E 015°54'0 0.0
2017-Nov-14 16:53N 38°27' E 015°54'0 0.0
2017-Nov-14 16:20N 38°27' E 015°54'0 0.0
2017-Nov-14 15:59N 38°27' E 015°54'0 0.0
2017-Nov-14 15:29N 38°27' E 015°54'0 0.0
2017-Nov-14 14:59N 38°27' E 015°54'0 0.0
2017-Nov-14 14:23N 38°27' E 015°54'0 0.0
2017-Nov-14 13:59N 38°27' E 015°54'0 0.0
2017-Nov-14 13:26N 38°27' E 015°54'0 0.0
2017-Nov-14 12:53N 38°27' E 015°54'0 0.0
2017-Nov-14 12:26N 38°27' E 015°54'0 0.0
2017-Nov-14 11:59N 38°27' E 015°54'0 0.0
2017-Nov-14 11:29N 38°27' E 015°54'0 0.0
2017-Nov-14 10:59N 38°27' E 015°54'0 0.0
2017-Nov-14 10:26N 38°27' E 015°54'0 0.0
2017-Nov-14 09:59N 38°27' E 015°54'0 0.0
2017-Nov-14 09:26N 38°27' E 015°54'0 0.0
2017-Nov-14 08:59N 38°27' E 015°54'0 0.0
2017-Nov-14 08:29N 38°27' E 015°54'0 0.0
2017-Nov-14 07:59N 38°27' E 015°54'0 0.0
2017-Nov-14 07:23N 38°27' E 015°54'0 0.0
2017-Nov-14 06:56N 38°27' E 015°54'0 0.0
2017-Nov-14 06:23N 38°27' E 015°54'0 0.0
2017-Nov-14 05:59N 38°27' E 015°54'0 0.1
2017-Nov-14 05:31N 38°27' E 015°54'1 2.4
2017-Nov-14 05:00N 38°27' E 015°53'2 3.3
2017-Nov-14 04:30N 38°27' E 015°50'0 0.5
2017-Nov-14 04:00N 38°27' E 015°50'3 5.9
2017-Nov-14 03:30N 38°26' E 015°47'5 9.8
2017-Nov-14 03:00N 38°25' E 015°41'714.3
2017-Nov-14 02:31N 38°24' E 015°32'714.7
2017-Nov-14 02:00N 38°23' E 015°22'714.4
2017-Nov-14 01:31N 38°22' E 015°13'714.7
2017-Nov-14 01:00N 38°20' E 015°04'714.8
2017-Nov-14 00:31N 38°20' E 014°55'714.7
2017-Nov-14 00:01N 38°20' E 014°45'714.8
2017-Nov-13 23:30N 38°21' E 014°36'714.7
2017-Nov-13 23:00N 38°21' E 014°27'714.4
2017-Nov-13 22:30N 38°22' E 014°18'714.7
2017-Nov-13 22:00N 38°22' E 014°08'53816.6
2017-Nov-12 13:39N 38°59' E 002°40'318.4
2017-Nov-12 13:30N 39°00' E 002°37'1018.3
2017-Nov-12 12:59N 39°04' E 002°26'1118.0
2017-Nov-12 12:23N 39°07' E 002°12'2117.4
2017-Nov-12 11:09N 39°14' E 001°46'417.4
2017-Nov-12 10:57N 39°15' E 001°42'917.4
2017-Nov-12 10:25N 39°18' E 001°31'122 3.2
2017-Nov-10 19:59N 37°50' W 000°17'814.4
2017-Nov-10 19:27N 37°44' W 000°22'714.6
2017-Nov-10 19:00N 37°38' W 000°27'714.4
2017-Nov-10 18:30N 37°32' W 000°32'714.3
2017-Nov-10 18:00N 37°28' W 000°39'714.2
2017-Nov-10 17:30N 37°23' W 000°46'714.2
2017-Nov-10 17:00N 37°19' W 000°52'714.1
2017-Nov-10 16:30N 37°14' W 000°59'914.5
2017-Nov-10 15:55N 37°07' W 001°06'20314.7
2017-Nov-10 02:04N 36°02' W 005°05'116.0
2017-Nov-10 02:00N 36°02' W 005°06'815.7
2017-Nov-10 01:31N 36°01' W 005°16'612.4
2017-Nov-10 01:00N 36°04' W 005°23'611.2
2017-Nov-10 00:30N 36°09' W 005°26'  
Track history (hours):
 
Tides and Currents Weather Stations Pressure Air Temp Water Temp Dewpoint Dewpoint Depression Visibility Wind Speed Wind Dir Waves Ship Positions

MSC Kingston

Last reported at 2017-Nov-20 00:29 UTC. Time now 2017-Nov-20 11:58 UTC.
Position N 44°06' E 009°51'.

Length 304 m; draft 10.9 m.

Type: Ship (hazmat cat D). MMSI: 477348500.

Date/timePositionNaut miles runAvg speedWind from/ knotsBaromVisibWave heightAir tempDewpointWater temp
2017-Nov-20 00:29N 44°06' E 009°51'0 0.0
2017-Nov-19 23:56N 44°06' E 009°51'0 0.0
2017-Nov-19 23:29N 44°06' E 009°51'0 0.0
2017-Nov-19 22:59N 44°06' E 009°51'0 0.0
2017-Nov-19 22:29N 44°06' E 009°51'0 0.0
2017-Nov-19 21:56N 44°06' E 009°51'0 0.0
2017-Nov-19 21:29N 44°06' E 009°51'0 0.0
2017-Nov-19 20:59N 44°06' E 009°51'0 0.0
2017-Nov-19 20:29N 44°06' E 009°51'0 0.0
2017-Nov-19 19:59N 44°06' E 009°51'0 0.7
2017-Nov-19 19:30N 44°06' E 009°51'4 7.1
2017-Nov-19 19:01N 44°03' E 009°53'1 2.5
2017-Nov-19 18:31N 44°02' E 009°54'1 1.7
2017-Nov-19 18:00N 44°02' E 009°55'0 0.1
2017-Nov-19 17:30N 44°02' E 009°55'0 0.0
2017-Nov-19 17:00N 44°02' E 009°55'0 0.1
2017-Nov-19 16:30N 44°02' E 009°55'0 0.0
2017-Nov-19 16:00N 44°02' E 009°55'0 0.0
2017-Nov-19 15:30N 44°02' E 009°55'0 0.0
2017-Nov-19 14:57N 44°02' E 009°55'0 0.0
2017-Nov-19 14:30N 44°02' E 009°55'0 0.1
2017-Nov-19 13:57N 44°02' E 009°55'0 0.2
2017-Nov-19 13:30N 44°02' E 009°55'0 0.3
2017-Nov-19 13:00N 44°02' E 009°55'2 4.2
2017-Nov-19 12:30N 43°60' E 009°56'510.9
2017-Nov-19 12:00N 43°55' E 009°54'611.6
2017-Nov-19 11:30N 43°49' E 009°51'611.2
2017-Nov-19 11:00N 43°44' E 009°49'611.2
2017-Nov-19 10:30N 43°38' E 009°47'611.2
2017-Nov-19 10:00N 43°33' E 009°49'510.5
2017-Nov-19 09:30N 43°31' E 009°56'510.8
2017-Nov-19 09:00N 43°30' E 010°03'611.2
2017-Nov-19 08:30N 43°31' E 010°11'4 7.4
2017-Nov-19 08:00N 43°32' E 010°16'2 4.8
2017-Nov-19 07:30N 43°34' E 010°18'1 1.3
2017-Nov-19 07:00N 43°34' E 010°18'0 0.0
2017-Nov-19 06:30N 43°35' E 010°18'0 0.0
2017-Nov-19 05:51N 43°35' E 010°18'0 0.0
2017-Nov-19 05:30N 43°35' E 010°18'0 0.0
2017-Nov-19 04:57N 43°35' E 010°18'0 0.0
2017-Nov-19 04:30N 43°35' E 010°18'0 0.0
2017-Nov-19 03:57N 43°35' E 010°18'0 0.0
2017-Nov-19 03:27N 43°35' E 010°18'0 0.0
2017-Nov-19 03:00N 43°35' E 010°18'0 0.0
2017-Nov-19 02:30N 43°35' E 010°18'0 0.0
2017-Nov-19 02:00N 43°35' E 010°18'0 0.0
2017-Nov-19 01:30N 43°35' E 010°18'0 0.0
2017-Nov-19 01:00N 43°35' E 010°18'0 0.0
2017-Nov-19 00:27N 43°34' E 010°18'0 0.0
2017-Nov-18 23:57N 43°35' E 010°18'0 0.0
2017-Nov-18 23:30N 43°35' E 010°18'0 0.0
2017-Nov-18 23:00N 43°34' E 010°18'0 0.0
2017-Nov-18 22:30N 43°35' E 010°18'0 0.0
2017-Nov-18 21:57N 43°35' E 010°18'0 0.0
2017-Nov-18 21:30N 43°35' E 010°18'0 0.0
2017-Nov-18 21:00N 43°35' E 010°18'0 0.0
2017-Nov-18 20:30N 43°35' E 010°18'0 0.0
2017-Nov-18 20:00N 43°35' E 010°18'0 0.0
2017-Nov-18 19:30N 43°35' E 010°18'0 0.0
2017-Nov-18 19:00N 43°34' E 010°18'0 0.0
2017-Nov-18 18:30N 43°35' E 010°18'0 0.0
2017-Nov-18 18:00N 43°35' E 010°18'0 0.0
2017-Nov-18 17:21N 43°35' E 010°18'0 0.0
2017-Nov-18 16:57N 43°35' E 010°18'0 0.0
2017-Nov-18 16:30N 43°35' E 010°18'0 0.0
2017-Nov-18 16:00N 43°35' E 010°18'0 0.0
2017-Nov-18 15:30N 43°35' E 010°18'0 0.0
2017-Nov-18 14:57N 43°35' E 010°18'0 0.0
2017-Nov-18 14:30N 43°34' E 010°18'0 0.0
2017-Nov-18 14:00N 43°35' E 010°18'0 0.0
2017-Nov-18 13:30N 43°35' E 010°18'0 0.0
2017-Nov-18 13:00N 43°35' E 010°18'0 0.0
2017-Nov-18 12:30N 43°35' E 010°18'0 0.0
2017-Nov-18 12:00N 43°34' E 010°18'0 0.0
2017-Nov-18 11:30N 43°35' E 010°18'0 0.0
2017-Nov-18 11:00N 43°35' E 010°18'0 0.0
2017-Nov-18 10:27N 43°35' E 010°18'0 0.0
2017-Nov-18 10:00N 43°35' E 010°18'0 0.0
2017-Nov-18 09:24N 43°35' E 010°18'0 0.0
2017-Nov-18 09:00N 43°35' E 010°18'0 0.0
2017-Nov-18 08:30N 43°35' E 010°18'0 0.0
2017-Nov-18 07:57N 43°35' E 010°18'0 0.0
2017-Nov-18 07:30N 43°35' E 010°18'0 0.0
2017-Nov-18 07:00N 43°35' E 010°18'1 2.1
2017-Nov-18 06:30N 43°34' E 010°18'3 5.1
2017-Nov-18 06:00N 43°32' E 010°16'0 0.3
2017-Nov-18 05:30N 43°31' E 010°16'3 6.6
2017-Nov-18 05:00N 43°29' E 010°13'2 3.1
2017-Nov-18 04:30N 43°27' E 010°13'1 2.9
2017-Nov-18 04:00N 43°26' E 010°12'4 8.0
2017-Nov-18 03:30N 43°22' E 010°11'4 7.3
2017-Nov-18 03:00N 43°18' E 010°10'510.0
2017-Nov-18 02:30N 43°13' E 010°09'612.1
2017-Nov-18 02:00N 43°08' E 010°07'612.4
2017-Nov-18 01:30N 43°01' E 010°05'611.8
2017-Nov-18 01:00N 42°56' E 010°03'4610.7
2017-Nov-17 20:39N 42°10' E 010°15'212.2
2017-Nov-17 20:28N 42°09' E 010°18'612.2
2017-Nov-17 19:59N 42°05' E 010°24'190 7.9
2017-Nov-16 19:53N 40°50' E 014°17'0 0.0
2017-Nov-16 19:26N 40°50' E 014°17'0 0.0
2017-Nov-16 18:56N 40°50' E 014°17'0 0.0
2017-Nov-16 18:26N 40°50' E 014°17'0 0.0
2017-Nov-16 17:56N 40°50' E 014°17'0 0.0
2017-Nov-16 16:38N 40°50' E 014°17'0 0.0
2017-Nov-16 16:26N 40°50' E 014°17'0 0.0
2017-Nov-16 15:59N 40°50' E 014°17'0 0.0
2017-Nov-16 15:29N 40°50' E 014°17'0 0.0
2017-Nov-16 14:59N 40°50' E 014°17'0 0.0
2017-Nov-16 14:26N 40°50' E 014°17'0 0.0
2017-Nov-16 13:59N 40°50' E 014°17'0 0.0
2017-Nov-16 13:29N 40°50' E 014°17'0 0.0
2017-Nov-16 12:59N 40°50' E 014°17'0 0.0
2017-Nov-16 12:17N 40°50' E 014°17'0 0.0
2017-Nov-16 11:59N 40°50' E 014°17'0 0.0
2017-Nov-16 11:29N 40°50' E 014°17'0 0.0
2017-Nov-16 10:59N 40°50' E 014°17'0 0.0
2017-Nov-16 10:05N 40°50' E 014°17'0 0.0
2017-Nov-16 09:50N 40°50' E 014°17'0 0.0
2017-Nov-16 09:29N 40°50' E 014°17'0 0.0
2017-Nov-16 08:47N 40°50' E 014°17'0 0.0
2017-Nov-16 08:20N 40°50' E 014°17'0 0.0
2017-Nov-16 07:53N 40°50' E 014°17'0 0.0
2017-Nov-16 07:23N 40°50' E 014°17'0 0.0
2017-Nov-16 06:53N 40°50' E 014°17'0 0.0
2017-Nov-15 20:35N 40°50' E 014°17'0 0.1
2017-Nov-15 20:29N 40°50' E 014°17'0 0.0
2017-Nov-15 19:32N 40°50' E 014°17'0 0.0
2017-Nov-15 17:35N 40°50' E 014°17'0 0.4
2017-Nov-15 17:30N 40°50' E 014°17'1 1.2
2017-Nov-15 17:00N 40°50' E 014°17'2 4.4
2017-Nov-15 16:30N 40°48' E 014°17'612.8
2017-Nov-15 16:00N 40°42' E 014°13'1019.2
2017-Nov-15 15:30N 40°33' E 014°07'1119.2
2017-Nov-15 14:55N 40°24' E 014°14'920.2
2017-Nov-15 14:28N 40°16' E 014°21'5520.0
2017-Nov-15 11:44N 39°30' E 015°00'520.1
2017-Nov-15 11:29N 39°26' E 015°04'3320.1
2017-Nov-15 09:52N 38°58' E 015°26'820.0
2017-Nov-15 09:29N 38°52' E 015°32'919.8
2017-Nov-15 09:00N 38°44' E 015°38'1020.1
2017-Nov-15 08:30N 38°36' E 015°45'1018.8
2017-Nov-15 08:00N 38°28' E 015°52'2 3.0
2017-Nov-15 07:20N 38°27' E 015°54'0 0.0
2017-Nov-15 06:59N 38°27' E 015°54'0 0.0
2017-Nov-15 06:29N 38°27' E 015°54'0 0.0
2017-Nov-15 05:59N 38°27' E 015°54'0 0.0
2017-Nov-15 05:29N 38°27' E 015°54'0 0.0
2017-Nov-15 04:59N 38°27' E 015°54'0 0.0
2017-Nov-15 04:02N 38°27' E 015°54'0 0.0
2017-Nov-15 02:20N 38°27' E 015°54'0 0.0
2017-Nov-15 01:59N 38°27' E 015°54'0 0.0
2017-Nov-15 01:20N 38°27' E 015°54'0 0.0
2017-Nov-15 00:56N 38°27' E 015°54'0 0.0
2017-Nov-15 00:29N 38°27' E 015°54'0 0.0
2017-Nov-14 23:56N 38°27' E 015°54'0 0.0
2017-Nov-14 23:29N 38°27' E 015°54'0 0.0
2017-Nov-14 22:59N 38°27' E 015°54'0 0.0
2017-Nov-14 22:29N 38°27' E 015°54'0 0.0
2017-Nov-14 21:59N 38°27' E 015°54'0 0.0
2017-Nov-14 21:29N 38°27' E 015°54'0 0.0
2017-Nov-14 20:56N 38°27' E 015°54'0 0.0
2017-Nov-14 20:29N 38°27' E 015°54'0 0.0
2017-Nov-14 19:56N 38°27' E 015°54'0 0.0
2017-Nov-14 19:26N 38°27' E 015°54'0 0.0
2017-Nov-14 18:59N 38°27' E 015°54'0 0.0
2017-Nov-14 18:29N 38°27' E 015°54'0 0.0
2017-Nov-14 17:59N 38°27' E 015°54'0 0.0
2017-Nov-14 17:26N 38°27' E 015°54'0 0.0
2017-Nov-14 16:53N 38°27' E 015°54'0 0.0
2017-Nov-14 16:20N 38°27' E 015°54'0 0.0
2017-Nov-14 15:59N 38°27' E 015°54'0 0.0
2017-Nov-14 15:29N 38°27' E 015°54'0 0.0
2017-Nov-14 14:59N 38°27' E 015°54'0 0.0
2017-Nov-14 14:23N 38°27' E 015°54'0 0.0
2017-Nov-14 13:59N 38°27' E 015°54'0 0.0
2017-Nov-14 13:26N 38°27' E 015°54'0 0.0
2017-Nov-14 12:53N 38°27' E 015°54'0 0.0
2017-Nov-14 12:26N 38°27' E 015°54'0 0.0
2017-Nov-14 11:59N 38°27' E 015°54'0 0.0
2017-Nov-14 11:29N 38°27' E 015°54'0 0.0
2017-Nov-14 10:59N 38°27' E 015°54'0 0.0
2017-Nov-14 10:26N 38°27' E 015°54'0 0.0
2017-Nov-14 09:59N 38°27' E 015°54'0 0.0
2017-Nov-14 09:26N 38°27' E 015°54'0 0.0
2017-Nov-14 08:59N 38°27' E 015°54'0 0.0
2017-Nov-14 08:29N 38°27' E 015°54'0 0.0
2017-Nov-14 07:59N 38°27' E 015°54'0 0.0
2017-Nov-14 07:23N 38°27' E 015°54'0 0.0
2017-Nov-14 06:56N 38°27' E 015°54'0 0.0
2017-Nov-14 06:23N 38°27' E 015°54'0 0.0
2017-Nov-14 05:59N 38°27' E 015°54'0 0.1
2017-Nov-14 05:31N 38°27' E 015°54'1 2.4
2017-Nov-14 05:00N 38°27' E 015°53'2 3.3
2017-Nov-14 04:30N 38°27' E 015°50'0 0.5
2017-Nov-14 04:00N 38°27' E 015°50'3 5.9
2017-Nov-14 03:30N 38°26' E 015°47'5 9.8
2017-Nov-14 03:00N 38°25' E 015°41'714.3
2017-Nov-14 02:31N 38°24' E 015°32'714.7
2017-Nov-14 02:00N 38°23' E 015°22'714.4
2017-Nov-14 01:31N 38°22' E 015°13'714.7
2017-Nov-14 01:00N 38°20' E 015°04'714.8
2017-Nov-14 00:31N 38°20' E 014°55'714.7
2017-Nov-14 00:01N 38°20' E 014°45'714.8
2017-Nov-13 23:30N 38°21' E 014°36'714.7
2017-Nov-13 23:00N 38°21' E 014°27'714.4
2017-Nov-13 22:30N 38°22' E 014°18'714.7
2017-Nov-13 22:00N 38°22' E 014°08'53816.6
2017-Nov-12 13:39N 38°59' E 002°40'318.4
2017-Nov-12 13:30N 39°00' E 002°37'1018.3
2017-Nov-12 12:59N 39°04' E 002°26'1118.0
2017-Nov-12 12:23N 39°07' E 002°12'2117.4
2017-Nov-12 11:09N 39°14' E 001°46'417.4
2017-Nov-12 10:57N 39°15' E 001°42'917.4
2017-Nov-12 10:25N 39°18' E 001°31'122 3.2
2017-Nov-10 19:59N 37°50' W 000°17'814.4
2017-Nov-10 19:27N 37°44' W 000°22'714.6
2017-Nov-10 19:00N 37°38' W 000°27'714.4
2017-Nov-10 18:30N 37°32' W 000°32'714.3
2017-Nov-10 18:00N 37°28' W 000°39'714.2
2017-Nov-10 17:30N 37°23' W 000°46'714.2
2017-Nov-10 17:00N 37°19' W 000°52'714.1
2017-Nov-10 16:30N 37°14' W 000°59'914.5
2017-Nov-10 15:55N 37°07' W 001°06'20314.7
2017-Nov-10 02:04N 36°02' W 005°05'116.0
2017-Nov-10 02:00N 36°02' W 005°06'815.7
2017-Nov-10 01:31N 36°01' W 005°16'612.4
2017-Nov-10 01:00N 36°04' W 005°23'611.2
2017-Nov-10 00:30N 36°09' W 005°26'  

Dump ship's entire track history